CNA9 weather

Tomvale Airport
Plevna, Ontario, Canada

Public forecast

Using degrees Celsius for public forecast. Weather courtesy of forecast.io.

METAR (pilot weather report)

Closest report is Kingston Norman Rogers Airport, 43.9 nm (81.4 km) SSE. Retrieved 2019/04/25 11:00 UTC (33 minutes ago):

CYGK 251100Z 00000KT 15SM FEW034 SCT240 03/03 A2996 RMK SC1CI3 SLP149

TAF (pilot weather forecast)

Forecast is more than 12 hours old.

Closest forecast is Kingston Norman Rogers Airport, 43.9 nm (81.4 km) SSE. Retrieved 2019/04/24 20:00 UTC (16 hours ago):

TAF CYGK 241938Z 2420/2503 29010KT P6SM BKN030 TEMPO 2420/2503 OVC020 BECMG 2423/2501 VRB03KT RMK NXT FCST WILL BE ISSUED AT 251145Z